Time;durP1;ratioP1;P1;durP2;ratioP2;P2;SDS_P1;SDS_P2;PMS_P1;PMS_P2;Temp;Humidity;BMP_temperature;BMP_pressure;BME280_temperature;BME280_humidity;BME280_pressure;Samples;Min_cycle;Max_cycle;Signal;HPM_P1;HPM_P2
2023/09/30 00:00:32;;;;;;;8.50;7.20;;;;;;;22.39;47.54;98528.48;105099;1261;61273;-46
2023/09/30 00:03:00;;;;;;;8.90;7.70;;;;;;;22.39;47.56;98524.41;105421;1264;73191;-47
2023/09/30 00:05:28;;;;;;;10.50;7.70;;;;;;;22.38;47.55;98519.64;105112;1261;66314;-47
2023/09/30 00:07:56;;;;;;;9.20;7.50;;;;;;;22.37;47.47;98522.58;105204;1261;72582;-47
2023/09/30 00:10:23;;;;;;;8.90;7.80;;;;;;;22.37;47.49;98521.42;105258;1263;61270;-47
2023/09/30 00:12:50;;;;;;;9.30;7.40;;;;;;;22.37;47.35;98521.10;105197;1259;61223;-47
2023/09/30 00:15:18;;;;;;;8.40;7.50;;;;;;;22.37;47.44;98520.08;105186;1261;74580;-47
2023/09/30 00:17:45;;;;;;;9.50;7.70;;;;;;;22.36;47.36;98520.36;105246;1260;66270;-47
2023/09/30 00:20:14;;;;;;;8.50;7.60;;;;;;;22.36;47.36;98518.17;105252;1259;72659;-47
2023/09/30 00:22:42;;;;;;;8.70;7.60;;;;;;;22.35;47.28;98512.63;105853;1260;61397;-47
2023/09/30 00:25:10;;;;;;;8.20;7.40;;;;;;;22.34;47.30;98513.09;105277;1261;61372;-47
2023/09/30 00:27:37;;;;;;;8.10;7.30;;;;;;;22.34;47.36;98512.38;105233;1259;74603;-47
2023/09/30 00:30:06;;;;;;;8.10;6.80;;;;;;;22.33;47.20;98510.08;105213;1261;66115;-47
2023/09/30 00:32:34;;;;;;;8.00;7.00;;;;;;;22.34;47.21;98508.54;105258;1264;70943;-47
2023/09/30 00:35:03;;;;;;;8.20;6.90;;;;;;;22.33;47.26;98503.06;105315;1264;61279;-47
2023/09/30 00:37:30;;;;;;;8.20;7.30;;;;;;;22.32;47.38;98503.36;105176;1259;61228;-47
2023/09/30 00:39:57;;;;;;;8.40;7.30;;;;;;;22.32;47.41;98500.86;105297;1260;74671;-47
2023/09/30 00:42:25;;;;;;;11.30;7.70;;;;;;;22.32;47.48;98496.48;105219;1264;66747;-47
2023/09/30 00:44:52;;;;;;;8.70;7.10;;;;;;;22.31;47.34;98498.80;105233;1261;72591;-47
2023/09/30 00:47:21;;;;;;;7.50;6.80;;;;;;;22.31;47.36;98500.05;105208;1263;61296;-47
2023/09/30 00:49:49;;;;;;;7.70;6.60;;;;;;;22.30;47.34;98498.33;105147;1261;61270;-47
2023/09/30 00:52:17;;;;;;;7.80;6.80;;;;;;;22.30;47.43;98499.25;105247;1260;74534;-47
2023/09/30 00:54:46;;;;;;;8.60;7.00;;;;;;;22.29;47.33;98494.25;105220;1265;66673;-47
2023/09/30 00:57:13;;;;;;;7.40;6.70;;;;;;;22.29;47.30;98491.59;105250;1259;71866;-47
2023/09/30 00:59:40;;;;;;;7.80;6.70;;;;;;;22.29;47.32;98487.69;105305;1264;61260;-47
2023/09/30 01:02:08;;;;;;;7.50;6.80;;;;;;;22.28;47.26;98484.64;105264;1260;61219;-47
2023/09/30 01:04:36;;;;;;;7.90;6.90;;;;;;;22.28;47.42;98486.75;105013;1261;74646;-47
2023/09/30 01:07:05;;;;;;;8.90;7.00;;;;;;;22.28;47.26;98485.80;105201;1260;64413;-47
2023/09/30 01:09:33;;;;;;;7.60;6.80;;;;;;;22.27;47.30;98484.54;105208;1260;72373;-47
2023/09/30 01:12:01;;;;;;;9.70;7.10;;;;;;;22.26;47.26;98480.77;105118;1264;61273;-46
2023/09/30 01:14:32;;;;;;;7.60;6.60;;;;;;;22.26;47.24;98479.36;104979;1259;61363;-47
2023/09/30 01:16:59;;;;;;;9.00;6.80;;;;;;;22.26;47.22;98480.92;105071;1264;74776;-47
2023/09/30 01:19:27;;;;;;;7.50;6.70;;;;;;;22.26;47.23;98478.95;105091;1264;66221;-45
2023/09/30 01:21:58;;;;;;;7.70;6.30;;;;;;;22.25;47.34;98477.16;105002;1259;72783;-46
2023/09/30 01:24:29;;;;;;;8.00;6.40;;;;;;;22.25;47.33;98475.20;105060;1260;61318;-46
2023/09/30 01:26:56;;;;;;;7.60;6.80;;;;;;;22.25;47.19;98472.85;105010;1264;61189;-46
2023/09/30 01:29:28;;;;;;;7.90;7.10;;;;;;;22.24;47.16;98475.33;105067;1264;74546;-46
2023/09/30 01:31:55;;;;;;;8.10;6.40;;;;;;;22.24;47.15;98472.67;104913;1265;65444;-46
2023/09/30 01:34:23;;;;;;;7.10;6.10;;;;;;;22.23;47.11;98473.21;105023;1259;72527;-46
2023/09/30 01:36:51;;;;;;;8.60;6.80;;;;;;;22.23;47.19;98476.33;104980;1264;61273;-46
2023/09/30 01:39:18;;;;;;;8.30;6.60;;;;;;;22.22;46.97;98472.88;105219;1259;61327;-46
2023/09/30 01:41:46;;;;;;;9.00;6.40;;;;;;;22.22;47.06;98471.16;105096;1260;74601;-46
2023/09/30 01:44:13;;;;;;;7.70;6.40;;;;;;;22.21;47.16;98467.64;104945;1265;66037;-46
2023/09/30 01:46:40;;;;;;;7.70;6.50;;;;;;;22.21;46.99;98463.35;104946;1259;72672;-46
2023/09/30 01:49:08;;;;;;;7.70;6.50;;;;;;;22.21;47.12;98458.90;105075;1259;61210;-46
2023/09/30 01:51:35;;;;;;;8.30;6.30;;;;;;;22.20;47.06;98458.41;105064;1259;61279;-46
2023/09/30 01:54:03;;;;;;;6.90;6.20;;;;;;;22.20;46.88;98459.80;105093;1260;74648;-46
2023/09/30 01:56:31;;;;;;;10.00;6.30;;;;;;;22.19;47.11;98457.91;105024;1264;65235;-46
2023/09/30 01:58:59;;;;;;;6.80;6.10;;;;;;;22.19;47.08;98453.77;104953;1263;72667;-46
2023/09/30 02:01:27;;;;;;;7.20;6.10;;;;;;;22.18;46.99;98454.63;104976;1262;61178;-46
2023/09/30 02:03:54;;;;;;;7.00;6.00;;;;;;;22.18;46.87;98454.07;105011;1259;61331;-46
2023/09/30 02:06:22;;;;;;;9.20;6.20;;;;;;;22.18;47.01;98452.11;105025;1263;74989;-46
2023/09/30 02:08:49;;;;;;;7.40;6.50;;;;;;;22.18;47.16;98449.61;105000;1263;66275;-45
2023/09/30 02:11:17;;;;;;;7.80;6.10;;;;;;;22.17;47.05;98446.02;104933;1260;72606;-48
2023/09/30 02:13:44;;;;;;;7.40;6.30;;;;;;;22.17;46.94;98447.27;105120;1263;61264;-46
2023/09/30 02:16:13;;;;;;;6.50;5.80;;;;;;;22.16;47.10;98447.88;105245;1263;61401;-46
2023/09/30 02:18:44;;;;;;;9.90;6.50;;;;;;;22.16;47.11;98446.70;105307;1263;74594;-46
2023/09/30 02:21:12;;;;;;;8.60;6.30;;;;;;;22.15;47.13;98449.73;105180;1265;64997;-46
2023/09/30 02:23:39;;;;;;;6.80;6.10;;;;;;;22.15;47.13;98441.93;105004;1261;72736;-46
2023/09/30 02:26:07;;;;;;;8.00;6.00;;;;;;;22.15;47.22;98440.11;104976;1264;61273;-46
2023/09/30 02:28:34;;;;;;;12.10;6.00;;;;;;;22.14;47.07;98439.26;105099;1259;61363;-46
2023/09/30 02:31:02;;;;;;;6.50;5.80;;;;;;;22.14;47.01;98432.32;105029;1259;74624;-46
2023/09/30 02:33:29;;;;;;;7.50;5.60;;;;;;;22.13;46.99;98435.49;105289;1263;66252;-45
2023/09/30 02:35:57;;;;;;;7.60;6.20;;;;;;;22.13;47.05;98427.63;105137;1260;72596;-45
2023/09/30 02:38:25;;;;;;;7.50;5.90;;;;;;;22.13;46.91;98432.20;105029;1262;62046;-48
2023/09/30 02:40:54;;;;;;;7.80;6.30;;;;;;;22.12;47.14;98426.66;105095;1261;61299;-48
2023/09/30 02:43:22;;;;;;;7.30;5.90;;;;;;;22.12;47.00;98425.95;105053;1264;74599;-46
2023/09/30 02:45:50;;;;;;;7.70;5.80;;;;;;;22.12;47.01;98419.39;105111;1264;66298;-47
2023/09/30 02:48:17;;;;;;;6.30;5.50;;;;;;;22.12;46.96;98422.13;105231;1259;72584;-48
2023/09/30 02:50:45;;;;;;;7.10;5.80;;;;;;;22.11;47.14;98420.79;105228;1263;61254;-47
2023/09/30 02:53:13;;;;;;;7.00;5.70;;;;;;;22.11;46.92;98419.53;105212;1264;61289;-47
2023/09/30 02:55:41;;;;;;;7.40;5.50;;;;;;;22.10;46.98;98413.73;105041;1263;74573;-47
2023/09/30 02:58:10;;;;;;;6.40;5.60;;;;;;;22.10;47.09;98414.28;105264;1264;66396;-46
2023/09/30 03:00:37;;;;;;;6.30;5.70;;;;;;;22.10;47.05;98410.77;105257;1261;72651;-47
2023/09/30 03:03:05;;;;;;;6.30;5.60;;;;;;;22.10;46.95;98410.38;105234;1265;61703;-47
2023/09/30 03:05:33;;;;;;;8.70;6.20;;;;;;;22.08;46.97;98408.17;105042;1259;61408;-47
2023/09/30 03:08:01;;;;;;;6.30;5.40;;;;;;;22.08;46.93;98405.74;105375;1261;74602;-46
2023/09/30 03:10:28;;;;;;;8.10;5.90;;;;;;;22.08;46.94;98406.85;105024;1264;66296;-46
2023/09/30 03:13:01;;;;;;;6.70;5.90;;;;;;;22.07;46.91;98403.09;105434;1264;72602;-47
2023/09/30 03:15:31;;;;;;;7.80;5.40;;;;;;;22.07;47.04;98400.98;105171;1263;61175;-47
2023/09/30 03:17:59;;;;;;;7.40;5.80;;;;;;;22.07;46.92;98396.70;105557;1260;61362;-47
2023/09/30 03:20:27;;;;;;;6.90;5.80;;;;;;;22.06;46.95;98392.79;105243;1263;74800;-47
2023/09/30 03:22:54;;;;;;;7.90;6.10;;;;;;;22.06;46.96;98389.64;105228;1263;67200;-47
2023/09/30 03:25:22;;;;;;;6.40;5.40;;;;;;;22.06;46.92;98395.03;105212;1259;72923;-46
2023/09/30 03:27:50;;;;;;;5.70;5.00;;;;;;;22.06;46.83;98394.77;105750;1263;61312;-46
2023/09/30 03:30:19;;;;;;;6.30;5.70;;;;;;;22.05;46.91;98388.69;105297;1259;61215;-46
2023/09/30 03:32:47;;;;;;;7.70;5.80;;;;;;;22.05;46.87;98390.48;105227;1260;74580;-45
2023/09/30 03:35:16;;;;;;;6.10;5.50;;;;;;;22.05;46.97;98387.67;105301;1264;66110;-46
2023/09/30 03:37:46;;;;;;;7.10;5.80;;;;;;;22.04;46.98;98385.71;105223;1259;72459;-46
2023/09/30 03:40:18;;;;;;;7.70;5.60;;;;;;;22.03;46.90;98381.80;105260;1260;61398;-46
2023/09/30 03:42:49;;;;;;;6.30;5.20;;;;;;;22.04;47.03;98385.08;105257;1259;61426;-46
2023/09/30 03:45:18;;;;;;;7.20;6.20;;;;;;;22.03;46.95;98385.52;105073;1262;73317;-46
2023/09/30 03:47:47;;;;;;;5.90;5.30;;;;;;;22.03;46.97;98387.08;105074;1260;66095;-47
2023/09/30 03:50:16;;;;;;;8.30;5.60;;;;;;;22.02;46.88;98383.41;105042;1264;72349;-46
2023/09/30 03:52:44;;;;;;;8.00;5.90;;;;;;;22.02;46.80;98387.00;105027;1263;61303;-46
2023/09/30 03:55:15;;;;;;;8.90;6.10;;;;;;;22.02;46.82;98385.27;105087;1263;61274;-46
2023/09/30 03:57:47;;;;;;;8.80;5.60;;;;;;;22.02;46.83;98384.64;105017;1259;74284;-46
2023/09/30 04:00:18;;;;;;;7.80;5.50;;;;;;;22.01;46.97;98382.14;105041;1264;66187;-46
2023/09/30 04:02:55;;;;;;;6.80;6.10;;;;;;;22.01;46.96;98381.58;105072;1260;72331;-46
2023/09/30 04:05:29;;;;;;;7.30;6.10;;;;;;;22.01;46.86;98385.78;105233;1259;61265;-46
2023/09/30 04:07:57;;;;;;;7.10;5.70;;;;;;;22.00;46.81;98383.98;105574;1261;61329;-46
2023/09/30 04:10:25;;;;;;;6.40;5.10;;;;;;;21.99;46.96;98381.71;105290;1260;74742;-46
2023/09/30 04:12:52;;;;;;;6.30;5.70;;;;;;;21.99;46.91;98386.08;105730;1262;66131;-45
2023/09/30 04:15:19;;;;;;;8.30;5.70;;;;;;;21.99;46.78;98389.90;105284;1260;72625;-46
2023/09/30 04:17:48;;;;;;;6.60;5.40;;;;;;;21.99;46.81;98390.66;105093;1265;61254;-45
2023/09/30 04:20:16;;;;;;;8.10;5.50;;;;;;;21.99;46.87;98391.51;105069;1260;61125;-46
2023/09/30 04:22:48;;;;;;;6.80;5.50;;;;;;;21.99;46.93;98392.92;105073;1260;73286;-47
2023/09/30 04:25:17;;;;;;;6.00;5.40;;;;;;;21.99;46.85;98394.16;105136;1263;65080;-47
2023/09/30 04:27:44;;;;;;;8.30;6.00;;;;;;;21.98;46.98;98393.51;105180;1259;73073;-46
2023/09/30 04:30:12;;;;;;;8.50;5.60;;;;;;;21.98;47.04;98387.73;105231;1264;61263;-46
2023/09/30 04:32:39;;;;;;;7.70;5.40;;;;;;;21.98;46.78;98387.96;105120;1260;61447;-45
2023/09/30 04:35:10;;;;;;;7.20;5.60;;;;;;;21.98;47.02;98389.92;105102;1260;74432;-48
2023/09/30 04:37:38;;;;;;;7.60;6.10;;;;;;;21.97;46.91;98390.36;105225;1260;66368;-46
2023/09/30 04:40:15;;;;;;;7.70;5.40;;;;;;;21.97;47.02;98387.17;105177;1264;72753;-47
2023/09/30 04:42:44;;;;;;;8.40;5.60;;;;;;;21.96;46.90;98390.59;105117;1263;61269;-46
2023/09/30 04:45:21;;;;;;;9.30;5.70;;;;;;;21.96;46.88;98388.41;105244;1263;61375;-46
2023/09/30 04:47:49;;;;;;;7.50;5.90;;;;;;;21.96;46.81;98390.96;105759;1260;74602;-47
2023/09/30 04:50:16;;;;;;;6.00;5.30;;;;;;;21.96;46.87;98391.11;105070;1263;66326;-46
2023/09/30 04:52:45;;;;;;;7.20;5.50;;;;;;;21.95;46.89;98389.64;105137;1259;72355;-46
2023/09/30 04:55:15;;;;;;;6.80;5.90;;;;;;;21.95;46.85;98387.91;105160;1259;61162;-47
2023/09/30 04:57:47;;;;;;;8.60;5.70;;;;;;;21.95;46.80;98388.54;105124;1259;61275;-46
2023/09/30 05:00:21;;;;;;;7.80;5.60;;;;;;;21.95;46.96;98384.72;105232;1263;74593;-47
2023/09/30 05:02:49;;;;;;;6.70;5.30;;;;;;;21.94;46.86;98388.20;105255;1259;66172;-47
2023/09/30 05:05:16;;;;;;;8.20;5.60;;;;;;;21.94;46.81;98391.33;105279;1259;72632;-47
2023/09/30 05:07:46;;;;;;;8.50;5.50;;;;;;;21.94;46.86;98396.06;105067;1264;61366;-47
2023/09/30 05:10:15;;;;;;;8.50;5.60;;;;;;;21.94;46.78;98395.20;105070;1259;61392;-47
2023/09/30 05:12:46;;;;;;;6.70;5.70;;;;;;;21.94;46.84;98401.05;105193;1263;74590;-47
2023/09/30 05:15:15;;;;;;;6.80;5.30;;;;;;;21.93;46.74;98402.75;105190;1263;66107;-46
2023/09/30 05:17:44;;;;;;;6.90;5.10;;;;;;;21.93;46.97;98407.13;105059;1260;71213;-47
2023/09/30 05:20:12;;;;;;;6.40;5.20;;;;;;;21.92;47.03;98408.60;105232;1260;61318;-47
2023/09/30 05:22:46;;;;;;;7.20;5.60;;;;;;;21.93;46.83;98409.08;105008;1260;61292;-46
2023/09/30 05:25:17;;;;;;;7.00;5.60;;;;;;;21.93;46.89;98413.97;105007;1263;74308;-47
2023/09/30 05:27:47;;;;;;;6.40;5.30;;;;;;;21.93;46.96;98415.52;105153;1262;64868;-46
2023/09/30 05:30:16;;;;;;;6.80;5.10;;;;;;;21.93;47.04;98412.18;105253;1261;72494;-45
2023/09/30 05:32:46;;;;;;;9.10;5.40;;;;;;;21.92;46.90;98411.32;105213;1263;61598;-46
2023/09/30 05:35:16;;;;;;;8.00;5.50;;;;;;;21.93;46.97;98414.29;105262;1259;61260;-46
2023/09/30 05:37:45;;;;;;;9.40;5.50;;;;;;;21.93;47.02;98415.14;105217;1259;72822;-46
2023/09/30 05:40:21;;;;;;;6.60;5.30;;;;;;;21.92;47.03;98421.98;105168;1264;65781;-46
2023/09/30 05:42:54;;;;;;;9.10;5.40;;;;;;;21.93;47.04;98420.52;105807;1259;72615;-46
2023/09/30 05:45:26;;;;;;;7.40;5.40;;;;;;;21.93;47.16;98419.74;105286;1264;61173;-46
2023/09/30 05:47:56;;;;;;;7.90;6.00;;;;;;;21.93;47.21;98421.08;105737;1263;61270;-46
2023/09/30 05:50:26;;;;;;;9.70;5.70;;;;;;;21.93;47.14;98422.31;105241;1259;74555;-46
2023/09/30 05:52:58;;;;;;;8.40;5.90;;;;;;;21.93;47.05;98423.87;105693;1260;64938;-46
2023/09/30 05:55:25;;;;;;;7.80;5.40;;;;;;;21.93;47.11;98425.13;105154;1259;72686;-46
2023/09/30 05:57:54;;;;;;;7.10;5.60;;;;;;;21.94;47.35;98425.44;105032;1260;61402;-47
2023/09/30 06:00:23;;;;;;;6.90;5.60;;;;;;;21.94;47.11;98426.00;105088;1260;61395;-47
2023/09/30 06:02:51;;;;;;;8.90;5.40;;;;;;;21.94;47.24;98423.98;105633;1259;74493;-47
2023/09/30 06:05:19;;;;;;;8.20;5.70;;;;;;;21.95;47.17;98422.90;105215;1263;65077;-46
2023/09/30 06:07:46;;;;;;;8.50;6.30;;;;;;;21.95;47.27;98422.44;105285;1259;72434;-46
2023/09/30 06:10:18;;;;;;;7.10;5.50;;;;;;;21.95;47.10;98416.84;105172;1263;61277;-47
2023/09/30 06:12:54;;;;;;;8.40;5.80;;;;;;;21.96;47.31;98416.76;105079;1263;61172;-47
2023/09/30 06:15:25;;;;;;;7.80;6.00;;;;;;;21.96;47.07;98418.55;105177;1259;73335;-45
2023/09/30 06:17:54;;;;;;;8.00;5.60;;;;;;;21.96;47.25;98414.66;105651;1260;65719;-47
2023/09/30 06:20:22;;;;;;;7.10;6.00;;;;;;;21.96;47.26;98415.52;105099;1259;71534;-46
2023/09/30 06:22:49;;;;;;;9.00;5.70;;;;;;;21.97;47.25;98420.92;105576;1264;61262;-47
2023/09/30 06:25:17;;;;;;;6.70;5.50;;;;;;;21.97;47.21;98425.75;105085;1262;61221;-47
2023/09/30 06:27:45;;;;;;;9.40;6.10;;;;;;;21.97;47.18;98424.36;105173;1259;74591;-47
2023/09/30 06:30:16;;;;;;;8.60;6.00;;;;;;;21.98;47.21;98423.27;105215;1261;66607;-45
2023/09/30 06:32:44;;;;;;;7.50;5.60;;;;;;;21.99;47.23;98424.61;105051;1259;72306;-46
2023/09/30 06:35:12;;;;;;;6.50;5.80;;;;;;;21.99;47.18;98421.12;105100;1259;61376;-46
2023/09/30 06:37:40;;;;;;;8.40;5.50;;;;;;;21.99;47.24;98421.21;105211;1259;61271;-45
2023/09/30 06:40:12;;;;;;;7.00;5.60;;;;;;;22.00;47.15;98418.58;105198;1263;74581;-46
2023/09/30 06:42:40;;;;;;;8.30;5.50;;;;;;;22.00;47.24;98419.05;105192;1264;66289;-47
2023/09/30 06:45:09;;;;;;;8.50;5.60;;;;;;;22.00;47.15;98420.93;105107;1259;72642;-48
2023/09/30 06:47:38;;;;;;;7.40;5.70;;;;;;;22.00;47.20;98417.11;105028;1264;61260;-48
2023/09/30 06:50:16;;;;;;;6.20;5.60;;;;;;;22.01;47.12;98413.94;105228;1263;61243;-48
2023/09/30 06:52:45;;;;;;;6.80;5.40;;;;;;;22.01;47.06;98415.27;105145;1259;74581;-48
2023/09/30 06:55:16;;;;;;;8.80;5.80;;;;;;;22.02;47.15;98413.40;105103;1263;66319;-46
2023/09/30 06:57:44;;;;;;;6.30;5.70;;;;;;;22.03;47.10;98419.50;105031;1259;72645;-47
2023/09/30 07:00:14;;;;;;;7.40;5.80;;;;;;;22.03;47.23;98413.20;105250;1259;61394;-47
2023/09/30 07:02:41;;;;;;;7.80;5.30;;;;;;;22.03;47.25;98416.00;105237;1260;61133;-45
2023/09/30 07:05:13;;;;;;;6.80;5.50;;;;;;;22.04;47.31;98416.64;105255;1259;74609;-46
2023/09/30 07:07:42;;;;;;;7.70;5.60;;;;;;;22.04;47.19;98413.08;105253;1264;66108;-46
2023/09/30 07:10:11;;;;;;;7.70;5.60;;;;;;;22.05;47.06;98413.02;105264;1259;72624;-46
2023/09/30 07:12:39;;;;;;;7.30;5.70;;;;;;;22.06;47.23;98414.73;105195;1264;61928;-47
2023/09/30 07:15:08;;;;;;;9.40;5.70;;;;;;;22.07;47.16;98414.69;105128;1264;61205;-47
2023/09/30 07:17:36;;;;;;;7.40;5.20;;;;;;;22.07;47.14;98410.73;105054;1260;74626;-47
2023/09/30 07:20:05;;;;;;;6.70;5.40;;;;;;;22.08;47.14;98414.09;105238;1259;66238;-46
2023/09/30 07:22:36;;;;;;;7.20;5.60;;;;;;;22.08;47.05;98414.48;105181;1263;72531;-47
2023/09/30 07:25:23;;;;;;;7.30;5.20;;;;;;;22.09;47.09;98410.75;105071;1264;61264;-47
2023/09/30 07:27:50;;;;;;;7.00;4.90;;;;;;;22.10;46.86;98412.27;105059;1259;61262;-47
2023/09/30 07:30:18;;;;;;;8.70;5.40;;;;;;;22.11;46.90;98411.73;105083;1261;74989;-46
2023/09/30 07:32:46;;;;;;;6.20;5.30;;;;;;;22.12;46.94;98411.83;105112;1264;65842;-46
2023/09/30 07:35:15;;;;;;;6.30;5.30;;;;;;;22.12;47.07;98411.21;105158;1264;72649;-46
2023/09/30 07:37:43;;;;;;;5.90;5.30;;;;;;;22.13;46.86;98409.60;105076;1264;61184;-47
2023/09/30 07:40:11;;;;;;;6.10;5.00;;;;;;;22.14;46.94;98409.23;105155;1263;61336;-47
2023/09/30 07:42:39;;;;;;;6.70;5.20;;;;;;;22.14;46.76;98411.42;105122;1263;74430;-47
2023/09/30 07:45:07;;;;;;;7.20;6.40;;;;;;;22.15;46.68;98410.27;105166;1263;65740;-46
2023/09/30 07:47:36;;;;;;;6.70;4.80;;;;;;;22.16;46.70;98410.85;105204;1259;72603;-47
2023/09/30 07:50:09;;;;;;;8.10;5.10;;;;;;;22.16;46.72;98409.21;105182;1264;61260;-48
2023/09/30 07:52:39;;;;;;;8.30;5.50;;;;;;;22.17;46.63;98411.02;105260;1263;61318;-48
2023/09/30 07:55:08;;;;;;;8.00;5.20;;;;;;;22.18;46.59;98409.41;105267;1264;74457;-47
2023/09/30 07:57:36;;;;;;;6.20;4.90;;;;;;;22.19;46.66;98412.92;105092;1264;64990;-48
2023/09/30 08:00:14;;;;;;;9.70;5.40;;;;;;;22.20;46.84;98412.88;105115;1260;72488;-46
2023/09/30 08:02:43;;;;;;;5.70;5.10;;;;;;;22.20;46.80;98405.33;105584;1263;61260;-46
2023/09/30 08:05:11;;;;;;;7.50;5.00;;;;;;;22.21;46.91;98405.89;105101;1264;61192;-46
2023/09/30 08:07:39;;;;;;;7.10;5.40;;;;;;;22.22;46.71;98404.35;105093;1259;74621;-46
2023/09/30 08:10:12;;;;;;;6.60;5.00;;;;;;;22.23;46.63;98406.32;105131;1265;65932;-46
2023/09/30 08:12:40;;;;;;;7.60;5.00;;;;;;;22.24;46.60;98404.85;105206;1259;73108;-46
2023/09/30 08:15:11;;;;;;;10.00;5.10;;;;;;;22.24;46.61;98406.35;105261;1261;61144;-46
2023/09/30 08:17:40;;;;;;;8.90;5.40;;;;;;;22.26;46.83;98405.13;105245;1259;61391;-46
2023/09/30 08:20:11;;;;;;;6.50;4.80;;;;;;;22.26;46.72;98406.23;105117;1264;75034;-46
2023/09/30 08:22:39;;;;;;;8.40;4.90;;;;;;;22.27;46.84;98404.77;105069;1259;66157;-46
2023/09/30 08:25:07;;;;;;;13.50;5.40;;;;;;;22.28;46.59;98403.63;105263;1259;72669;-46
2023/09/30 08:27:36;;;;;;;11.00;5.00;;;;;;;22.29;46.70;98401.00;105239;1259;61372;-46
2023/09/30 08:30:05;;;;;;;8.40;5.20;;;;;;;22.29;46.72;98399.75;105260;1260;61306;-46
2023/09/30 08:32:35;;;;;;;6.20;4.40;;;;;;;22.30;46.73;98397.52;105069;1259;74598;-46
2023/09/30 08:35:04;;;;;;;8.90;4.90;;;;;;;22.31;46.92;98395.66;105063;1259;66797;-46
2023/09/30 08:37:31;;;;;;;5.80;4.50;;;;;;;22.32;46.69;98392.95;105216;1259;72635;-46
2023/09/30 08:39:58;;;;;;;11.10;5.00;;;;;;;22.32;46.77;98393.67;105218;1264;61269;-46
2023/09/30 08:42:29;;;;;;;5.10;4.20;;;;;;;22.33;46.94;98388.39;105037;1259;61299;-45
2023/09/30 08:44:56;;;;;;;9.70;4.70;;;;;;;22.34;46.86;98393.80;105175;1264;74718;-46
2023/09/30 08:47:27;;;;;;;8.30;4.70;;;;;;;22.35;46.65;98387.80;105128;1263;66131;-48
2023/09/30 08:49:57;;;;;;;9.70;4.40;;;;;;;22.36;46.70;98386.65;105052;1259;71212;-48
2023/09/30 08:52:25;;;;;;;11.60;5.30;;;;;;;22.37;46.86;98390.10;104996;1259;61376;-47
2023/09/30 08:54:53;;;;;;;10.10;5.20;;;;;;;22.38;46.78;98391.06;105221;1260;61404;-46
2023/09/30 08:57:20;;;;;;;7.50;5.00;;;;;;;22.38;46.70;98385.38;105271;1259;73278;-46
2023/09/30 08:59:49;;;;;;;9.30;5.00;;;;;;;22.39;46.73;98384.39;105268;1259;66513;-46
2023/09/30 09:02:17;;;;;;;10.00;4.90;;;;;;;22.40;46.76;98381.90;104997;1259;73065;-47
2023/09/30 09:04:45;;;;;;;6.40;4.50;;;;;;;22.41;46.69;98374.75;105102;1264;201944;-46
2023/09/30 09:07:13;;;;;;;7.00;4.90;;;;;;;22.42;46.81;98372.45;105265;1259;61412;-46
2023/09/30 09:09:40;;;;;;;8.40;5.00;;;;;;;22.43;46.74;98367.14;105074;1259;74358;-47
2023/09/30 09:12:19;;;;;;;7.80;4.80;;;;;;;22.43;46.80;98368.88;105239;1264;65492;-46
2023/09/30 09:14:47;;;;;;;6.00;4.80;;;;;;;22.45;46.86;98368.74;105271;1259;72679;-46
2023/09/30 09:17:15;;;;;;;5.90;4.30;;;;;;;22.45;46.90;98369.00;105123;1263;61272;-46
2023/09/30 09:19:43;;;;;;;7.80;5.10;;;;;;;22.46;46.86;98364.50;105045;1259;61271;-47
2023/09/30 09:22:10;;;;;;;8.00;5.20;;;;;;;22.48;46.88;98364.69;105045;1263;74280;-47
2023/09/30 09:24:46;;;;;;;7.50;4.80;;;;;;;22.48;46.82;98363.59;105161;1263;66262;-47
2023/09/30 09:27:16;;;;;;;6.10;4.30;;;;;;;22.49;47.02;98359.71;105102;1259;72672;-46
2023/09/30 09:29:45;;;;;;;5.50;4.60;;;;;;;22.50;46.93;98357.39;105056;1263;61379;-47
2023/09/30 09:32:14;;;;;;;6.50;4.40;;;;;;;22.51;46.86;98357.55;105038;1260;61156;-46
2023/09/30 09:34:43;;;;;;;10.00;4.70;;;;;;;22.51;46.88;98357.73;105115;1260;74605;-47
2023/09/30 09:37:15;;;;;;;6.90;4.50;;;;;;;22.53;46.89;98354.95;105082;1260;66309;-47
2023/09/30 09:39:58;;;;;;;7.90;4.70;;;;;;;22.53;46.93;98350.35;105063;1264;71545;-46
2023/09/30 09:42:32;;;;;;;7.30;4.80;;;;;;;22.53;46.79;98351.22;105084;1263;61287;-46
2023/09/30 09:45:05;;;;;;;5.90;4.90;;;;;;;22.54;46.99;98349.73;105125;1261;61423;-46
2023/09/30 09:47:33;;;;;;;4.80;4.10;;;;;;;22.55;46.97;98347.98;105192;1263;74661;-46
2023/09/30 09:50:03;;;;;;;7.90;5.00;;;;;;;22.56;47.00;98349.27;105094;1262;66374;-46
2023/09/30 09:52:31;;;;;;;7.80;5.00;;;;;;;22.57;46.86;98345.52;105171;1264;72587;-46
2023/09/30 09:54:58;;;;;;;8.70;4.70;;;;;;;22.58;46.96;98350.61;105166;1265;61344;-46
2023/09/30 09:57:26;;;;;;;8.20;4.90;;;;;;;22.58;46.82;98348.28;105113;1260;61327;-46
2023/09/30 09:59:53;;;;;;;7.30;4.50;;;;;;;22.59;46.82;98344.31;104974;1261;74606;-46
2023/09/30 10:02:23;;;;;;;7.20;4.80;;;;;;;22.60;46.86;98337.32;105064;1264;65950;-46
2023/09/30 10:04:51;;;;;;;8.30;4.90;;;;;;;22.61;46.88;98337.98;105136;1259;72662;-46
2023/09/30 10:07:20;;;;;;;8.60;4.70;;;;;;;22.62;46.93;98331.99;104877;1264;61330;-46
2023/09/30 10:09:50;;;;;;;7.30;4.70;;;;;;;22.63;46.64;98325.01;105264;1260;61376;-46
2023/09/30 10:12:18;;;;;;;6.80;4.60;;;;;;;22.64;46.65;98327.59;105297;1264;75385;-46
2023/09/30 10:14:46;;;;;;;5.80;4.40;;;;;;;22.64;46.70;98326.18;105170;1264;67223;-46
2023/09/30 10:17:13;;;;;;;6.20;4.60;;;;;;;22.64;46.56;98320.49;105110;1259;73563;-46
2023/09/30 10:20:06;;;;;;;7.00;4.80;;;;;;;22.65;46.82;98320.36;105137;1263;61173;-46
2023/09/30 10:22:34;;;;;;;5.50;4.50;;;;;;;22.65;46.62;98321.30;105224;1259;61168;-46
2023/09/30 10:25:02;;;;;;;9.40;4.60;;;;;;;22.65;46.53;98318.35;105042;1264;74614;-46
2023/09/30 10:27:37;;;;;;;6.10;4.30;;;;;;;22.66;46.61;98317.57;104899;1265;66326;-46
2023/09/30 10:30:05;;;;;;;8.60;5.00;;;;;;;22.67;46.70;98316.26;105031;1259;72644;-46
2023/09/30 10:32:56;;;;;;;7.00;4.80;;;;;;;22.67;46.50;98311.88;105074;1263;61271;-46
2023/09/30 10:35:27;;;;;;;6.20;4.70;;;;;;;22.68;46.51;98308.33;105286;1260;61416;-46
2023/09/30 10:38:24;;;;;;;5.20;4.50;;;;;;;22.68;46.36;98305.91;105041;1265;75413;-47
2023/09/30 10:40:53;;;;;;;5.50;4.60;;;;;;;22.69;46.29;98305.54;105226;1259;65716;-46
2023/09/30 10:43:35;;;;;;;5.70;4.60;;;;;;;22.70;46.49;98297.85;105200;1259;72642;-46
2023/09/30 10:46:06;;;;;;;5.20;4.40;;;;;;;22.70;46.39;98294.88;105065;1259;61318;-45
2023/09/30 10:48:35;;;;;;;5.60;4.20;;;;;;;22.70;46.51;98290.52;105179;1260;61322;-45
2023/09/30 10:51:16;;;;;;;7.80;5.00;;;;;;;22.71;46.57;98293.33;105186;1260;74613;-47
2023/09/30 10:53:45;;;;;;;7.60;4.40;;;;;;;22.72;46.56;98292.48;105091;1263;65593;-46
2023/09/30 10:56:12;;;;;;;5.30;4.40;;;;;;;22.72;46.43;98293.52;105125;1260;72679;-46
2023/09/30 10:58:52;;;;;;;5.70;4.40;;;;;;;22.73;46.38;98287.60;105326;1263;61282;-46
2023/09/30 11:01:22;;;;;;;5.10;4.00;;;;;;;22.72;46.21;98282.52;105113;1259;61396;-47
2023/09/30 11:03:53;;;;;;;5.10;3.90;;;;;;;22.74;46.13;98283.01;105256;1265;74618;-47
2023/09/30 11:06:21;;;;;;;6.40;4.10;;;;;;;22.74;46.32;98281.92;105305;1260;66551;-47
2023/09/30 11:09:00;;;;;;;5.40;4.40;;;;;;;22.75;46.29;98287.78;105303;1259;72745;-47
2023/09/30 11:11:34;;;;;;;4.70;3.80;;;;;;;22.75;46.13;98283.34;105090;1260;61318;-46
2023/09/30 11:14:02;;;;;;;7.20;3.90;;;;;;;22.76;46.16;98278.29;105141;1259;61369;-46
2023/09/30 11:16:29;;;;;;;7.10;4.40;;;;;;;22.77;46.08;98275.04;105236;1259;73502;-47
2023/09/30 11:18:57;;;;;;;7.80;4.30;;;;;;;22.77;45.88;98273.55;105034;1265;65907;-47
2023/09/30 11:21:25;;;;;;;5.10;4.20;;;;;;;22.78;46.05;98273.09;105111;1260;72666;-47
2023/09/30 11:23:52;;;;;;;5.50;4.60;;;;;;;22.79;46.22;98270.86;105072;1265;61377;-47
2023/09/30 11:26:31;;;;;;;6.20;4.30;;;;;;;22.80;46.03;98266.27;105034;1259;61256;-47
2023/09/30 11:29:18;;;;;;;4.70;3.70;;;;;;;22.81;46.02;98263.16;105132;1265;74629;-46
2023/09/30 11:31:50;;;;;;;5.20;4.40;;;;;;;22.82;46.00;98261.70;105214;1265;67110;-46
2023/09/30 11:34:19;;;;;;;5.10;3.80;;;;;;;22.83;46.07;98258.52;105308;1259;72657;-46